sensor_id;sensor_type;location;lat;lon;timestamp;pressure;altitude;pressure_sealevel;temperature;humidity
13836;BME280;6988;52.614;13.500;2023-01-28T00:03:25;55054.13;;;-143.77;81.83
13836;BME280;6988;52.614;13.500;2023-01-28T00:08:17;55074.66;;;-143.77;82.10
13836;BME280;6988;52.614;13.500;2023-01-28T00:13:11;55076.72;;;-143.77;82.02
13836;BME280;6988;52.614;13.500;2023-01-28T00:18:04;55045.91;;;-143.77;82.29
13836;BME280;6988;52.614;13.500;2023-01-28T00:22:57;55060.28;;;-143.77;82.45
13836;BME280;6988;52.614;13.500;2023-01-28T00:27:49;55041.81;;;-143.77;81.97
13836;BME280;6988;52.614;13.500;2023-01-28T00:32:41;55084.91;;;-143.77;82.16
13836;BME280;6988;52.614;13.500;2023-01-28T00:37:32;55043.88;;;-143.77;81.99
13836;BME280;6988;52.614;13.500;2023-01-28T00:42:27;55013.09;;;-143.77;81.90
13836;BME280;6988;52.614;13.500;2023-01-28T00:47:19;55054.13;;;-143.77;82.18
13836;BME280;6988;52.614;13.500;2023-01-28T00:52:12;55078.75;;;-143.77;82.25
13836;BME280;6988;52.614;13.500;2023-01-28T00:57:04;55058.25;;;-143.77;82.36
13836;BME280;6988;52.614;13.500;2023-01-28T01:01:57;55058.25;;;-143.77;82.16
13836;BME280;6988;52.614;13.500;2023-01-28T01:07:01;55072.59;;;-143.77;82.36
13836;BME280;6988;52.614;13.500;2023-01-28T01:11:53;55064.41;;;-143.77;82.32
13836;BME280;6988;52.614;13.500;2023-01-28T01:16:45;55066.44;;;-143.77;82.91
13836;BME280;6988;52.614;13.500;2023-01-28T01:21:38;55058.25;;;-143.77;82.50
13836;BME280;6988;52.614;13.500;2023-01-28T01:26:30;55076.72;;;-143.77;82.64
13836;BME280;6988;52.614;13.500;2023-01-28T01:31:22;55070.56;;;-143.77;83.03
13836;BME280;6988;52.614;13.500;2023-01-28T01:36:15;55091.06;;;-143.77;82.62
13836;BME280;6988;52.614;13.500;2023-01-28T01:41:23;55054.13;;;-143.77;83.07
13836;BME280;6988;52.614;13.500;2023-01-28T01:46:20;55070.56;;;-143.77;83.40
13836;BME280;6988;52.614;13.500;2023-01-28T01:51:18;55072.59;;;-143.77;83.00
13836;BME280;6988;52.614;13.500;2023-01-28T01:56:16;55078.75;;;-143.77;83.13
13836;BME280;6988;52.614;13.500;2023-01-28T02:01:10;55050.03;;;-143.77;83.33
13836;BME280;6988;52.614;13.500;2023-01-28T02:06:05;55058.25;;;-143.77;83.66
13836;BME280;6988;52.614;13.500;2023-01-28T02:11:02;55052.09;;;-143.77;83.68
13836;BME280;6988;52.614;13.500;2023-01-28T02:15:58;55054.13;;;-143.77;83.61
13836;BME280;6988;52.614;13.500;2023-01-28T02:21:26;55062.34;;;-143.77;83.52
13836;BME280;6988;52.614;13.500;2023-01-28T02:26:52;55050.03;;;-143.77;83.61
13836;BME280;6988;52.614;13.500;2023-01-28T02:31:53;55058.25;;;-143.77;83.47
13836;BME280;6988;52.614;13.500;2023-01-28T02:36:54;55103.38;;;-143.77;83.02
13836;BME280;6988;52.614;13.500;2023-01-28T02:41:58;55078.75;;;-143.77;82.64
13836;BME280;6988;52.614;13.500;2023-01-28T02:46:54;55039.75;;;-143.77;82.14
13836;BME280;6988;52.614;13.500;2023-01-28T02:52:33;55050.03;;;-143.77;82.01
13836;BME280;6988;52.614;13.500;2023-01-28T02:57:59;55029.50;;;-143.77;81.83
13836;BME280;6988;52.614;13.500;2023-01-28T03:03:04;55050.03;;;-143.77;81.77
13836;BME280;6988;52.614;13.500;2023-01-28T03:08:02;55025.41;;;-143.77;81.07
13836;BME280;6988;52.614;13.500;2023-01-28T03:13:15;55021.28;;;-143.77;81.08
13836;BME280;6988;52.614;13.500;2023-01-28T03:18:29;55039.75;;;-143.77;80.92
13836;BME280;6988;52.614;13.500;2023-01-28T03:23:47;55033.59;;;-143.77;80.73
13836;BME280;6988;52.614;13.500;2023-01-28T03:29:08;55021.28;;;-143.77;79.92
13836;BME280;6988;52.614;13.500;2023-01-28T03:34:22;55039.75;;;-143.77;79.78
13836;BME280;6988;52.614;13.500;2023-01-28T03:39:31;55050.03;;;-143.77;79.79
13836;BME280;6988;52.614;13.500;2023-01-28T03:44:25;55023.34;;;-143.77;80.05
13836;BME280;6988;52.614;13.500;2023-01-28T03:49:37;55041.81;;;-143.77;80.23
13836;BME280;6988;52.614;13.500;2023-01-28T03:54:29;55060.28;;;-143.77;79.81
13836;BME280;6988;52.614;13.500;2023-01-28T03:59:21;55033.59;;;-143.77;79.77
13836;BME280;6988;52.614;13.500;2023-01-28T04:04:13;55050.03;;;-143.77;79.46
13836;BME280;6988;52.614;13.500;2023-01-28T04:09:13;55050.03;;;-143.77;79.35
13836;BME280;6988;52.614;13.500;2023-01-28T04:14:17;55037.72;;;-143.77;78.97
13836;BME280;6988;52.614;13.500;2023-01-28T04:19:15;55050.03;;;-143.77;78.94
13836;BME280;6988;52.614;13.500;2023-01-28T04:24:08;55060.28;;;-143.77;78.27
13836;BME280;6988;52.614;13.500;2023-01-28T04:29:02;55023.34;;;-143.77;78.02
13836;BME280;6988;52.614;13.500;2023-01-28T04:33:56;55033.59;;;-143.77;77.96
13836;BME280;6988;52.614;13.500;2023-01-28T04:38:59;55023.34;;;-143.77;78.06
13836;BME280;6988;52.614;13.500;2023-01-28T04:44:01;55004.88;;;-143.77;77.85
13836;BME280;6988;52.614;13.500;2023-01-28T04:48:59;55050.03;;;-143.77;77.42
13836;BME280;6988;52.614;13.500;2023-01-28T04:54:10;55004.88;;;-143.77;76.92
13836;BME280;6988;52.614;13.500;2023-01-28T04:59:03;55025.41;;;-143.77;76.58
13836;BME280;6988;52.614;13.500;2023-01-28T05:03:56;54992.56;;;-143.77;77.02
13836;BME280;6988;52.614;13.500;2023-01-28T05:08:51;55062.34;;;-143.77;76.89
13836;BME280;6988;52.614;13.500;2023-01-28T05:13:43;55002.81;;;-143.77;76.53
13836;BME280;6988;52.614;13.500;2023-01-28T05:18:38;55070.56;;;-143.77;76.58
13836;BME280;6988;52.614;13.500;2023-01-28T05:23:34;55033.59;;;-143.77;76.00
13836;BME280;6988;52.614;13.500;2023-01-28T05:28:26;55035.66;;;-143.77;75.81
13836;BME280;6988;52.614;13.500;2023-01-28T05:33:21;55025.41;;;-143.77;76.57
13836;BME280;6988;52.614;13.500;2023-01-28T05:38:14;55050.03;;;-143.77;76.21
13836;BME280;6988;52.614;13.500;2023-01-28T05:43:06;55025.41;;;-143.77;75.97
13836;BME280;6988;52.614;13.500;2023-01-28T05:48:04;55008.97;;;-143.77;76.54
13836;BME280;6988;52.614;13.500;2023-01-28T05:53:22;55052.09;;;-143.77;75.52
13836;BME280;6988;52.614;13.500;2023-01-28T05:58:15;55045.91;;;-143.77;75.90
13836;BME280;6988;52.614;13.500;2023-01-28T06:03:07;55023.34;;;-143.77;75.13
13836;BME280;6988;52.614;13.500;2023-01-28T06:08:00;55027.44;;;-143.77;75.59
13836;BME280;6988;52.614;13.500;2023-01-28T06:12:53;55004.88;;;-143.77;75.70
13836;BME280;6988;52.614;13.500;2023-01-28T06:18:02;55008.97;;;-143.77;75.41
13836;BME280;6988;52.614;13.500;2023-01-28T06:22:57;55031.56;;;-143.77;75.44
13836;BME280;6988;52.614;13.500;2023-01-28T06:27:49;54994.63;;;-143.77;75.20
13836;BME280;6988;52.614;13.500;2023-01-28T06:32:42;55062.34;;;-143.77;74.78
13836;BME280;6988;52.614;13.500;2023-01-28T06:37:34;55025.41;;;-143.77;75.11
13836;BME280;6988;52.614;13.500;2023-01-28T06:42:25;55064.41;;;-143.77;75.37
13836;BME280;6988;52.614;13.500;2023-01-28T06:47:17;55043.88;;;-143.77;75.50
13836;BME280;6988;52.614;13.500;2023-01-28T06:52:11;55023.34;;;-143.77;75.34
13836;BME280;6988;52.614;13.500;2023-01-28T06:57:02;55025.41;;;-143.77;75.24
13836;BME280;6988;52.614;13.500;2023-01-28T07:01:54;55023.34;;;-143.77;75.26
13836;BME280;6988;52.614;13.500;2023-01-28T07:06:46;55000.78;;;-143.77;75.66
13836;BME280;6988;52.614;13.500;2023-01-28T07:11:39;55017.19;;;-143.77;75.35
13836;BME280;6988;52.614;13.500;2023-01-28T07:16:31;55033.59;;;-143.77;75.63
13836;BME280;6988;52.614;13.500;2023-01-28T07:21:23;55033.59;;;-143.77;75.07
13836;BME280;6988;52.614;13.500;2023-01-28T07:26:14;55006.94;;;-143.77;75.09
13836;BME280;6988;52.614;13.500;2023-01-28T07:31:07;55043.88;;;-143.77;75.07
13836;BME280;6988;52.614;13.500;2023-01-28T07:35:59;55054.13;;;-143.77;74.51
13836;BME280;6988;52.614;13.500;2023-01-28T07:40:51;55029.50;;;-143.77;73.79
13836;BME280;6988;52.614;13.500;2023-01-28T07:45:43;55023.34;;;-143.77;73.98
13836;BME280;6988;52.614;13.500;2023-01-28T07:50:37;55033.59;;;-143.77;73.79
13836;BME280;6988;52.614;13.500;2023-01-28T07:55:30;55017.19;;;-143.77;73.78
13836;BME280;6988;52.614;13.500;2023-01-28T08:00:23;55000.78;;;-143.77;73.02
13836;BME280;6988;52.614;13.500;2023-01-28T08:05:18;54994.63;;;-143.77;72.55
13836;BME280;6988;52.614;13.500;2023-01-28T08:10:12;54992.56;;;-143.77;71.60
13836;BME280;6988;52.614;13.500;2023-01-28T08:15:05;54990.50;;;-143.77;71.93
13836;BME280;6988;52.614;13.500;2023-01-28T08:19:57;54984.34;;;-143.77;71.20
13836;BME280;6988;52.614;13.500;2023-01-28T08:24:49;55019.25;;;-143.77;70.45
13836;BME280;6988;52.614;13.500;2023-01-28T08:29:42;55015.13;;;-143.77;70.07
13836;BME280;6988;52.614;13.500;2023-01-28T08:34:34;55008.97;;;-143.77;68.60
13836;BME280;6988;52.614;13.500;2023-01-28T08:39:25;55011.03;;;-143.77;68.71
13836;BME280;6988;52.614;13.500;2023-01-28T08:44:17;54996.66;;;-143.77;69.43
13836;BME280;6988;52.614;13.500;2023-01-28T08:49:10;54998.72;;;-143.77;68.30
13836;BME280;6988;52.614;13.500;2023-01-28T08:54:02;54992.56;;;-143.77;69.21
13836;BME280;6988;52.614;13.500;2023-01-28T08:58:54;54951.53;;;-143.77;68.51
13836;BME280;6988;52.614;13.500;2023-01-28T09:03:46;54976.16;;;-143.77;68.36
13836;BME280;6988;52.614;13.500;2023-01-28T09:08:39;54970.00;;;-143.77;65.19
13836;BME280;6988;52.614;13.500;2023-01-28T09:13:30;54967.94;;;-143.77;66.38
13836;BME280;6988;52.614;13.500;2023-01-28T09:18:22;54988.47;;;-143.77;67.54
13836;BME280;6988;52.614;13.500;2023-01-28T09:23:14;54992.56;;;-143.77;67.27
13836;BME280;6988;52.614;13.500;2023-01-28T09:28:07;54959.72;;;-143.77;67.47
13836;BME280;6988;52.614;13.500;2023-01-28T09:32:59;54959.72;;;-143.77;68.43
13836;BME280;6988;52.614;13.500;2023-01-28T09:37:53;54963.84;;;-143.77;67.87
13836;BME280;6988;52.614;13.500;2023-01-28T09:43:00;54959.72;;;-143.77;68.02
13836;BME280;6988;52.614;13.500;2023-01-28T09:48:00;54963.84;;;-143.77;67.87
13836;BME280;6988;52.614;13.500;2023-01-28T09:52:59;54959.72;;;-143.77;67.41
13836;BME280;6988;52.614;13.500;2023-01-28T09:57:53;54939.22;;;-143.77;66.45
13836;BME280;6988;52.614;13.500;2023-01-28T10:03:27;54963.84;;;-143.77;66.66
13836;BME280;6988;52.614;13.500;2023-01-28T10:08:58;54957.69;;;-143.77;65.49
13836;BME280;6988;52.614;13.500;2023-01-28T10:14:01;54943.31;;;-143.77;65.39
13836;BME280;6988;52.614;13.500;2023-01-28T10:19:02;54972.03;;;-143.77;64.05
13836;BME280;6988;52.614;13.500;2023-01-28T10:24:01;54955.63;;;-143.77;64.00
13836;BME280;6988;52.614;13.500;2023-01-28T10:28:59;54918.69;;;-143.77;62.53
13836;BME280;6988;52.614;13.500;2023-01-28T10:33:53;54951.53;;;-143.77;64.04
13836;BME280;6988;52.614;13.500;2023-01-28T10:38:46;54947.41;;;-143.77;64.02
13836;BME280;6988;52.614;13.500;2023-01-28T10:43:41;54922.78;;;-143.77;64.04
13836;BME280;6988;52.614;13.500;2023-01-28T10:48:36;54931.00;;;-143.77;64.27
13836;BME280;6988;52.614;13.500;2023-01-28T10:53:35;54939.22;;;-143.77;64.55
13836;BME280;6988;52.614;13.500;2023-01-28T10:58:33;54922.78;;;-143.77;64.87
13836;BME280;6988;52.614;13.500;2023-01-28T11:03:27;54906.38;;;-143.77;64.13
13836;BME280;6988;52.614;13.500;2023-01-28T11:08:22;54951.53;;;-143.77;64.09
13836;BME280;6988;52.614;13.500;2023-01-28T11:13:18;54939.22;;;-143.77;64.25
13836;BME280;6988;52.614;13.500;2023-01-28T11:18:18;54939.22;;;-143.77;64.00
13836;BME280;6988;52.614;13.500;2023-01-28T11:23:20;54926.91;;;-143.77;64.16
13836;BME280;6988;52.614;13.500;2023-01-28T11:28:25;54957.69;;;-143.77;63.85
13836;BME280;6988;52.614;13.500;2023-01-28T11:33:23;54933.06;;;-143.77;63.33
13836;BME280;6988;52.614;13.500;2023-01-28T11:38:19;54937.16;;;-143.77;64.41
13836;BME280;6988;52.614;13.500;2023-01-28T11:43:11;54955.63;;;-143.77;63.74
13836;BME280;6988;52.614;13.500;2023-01-28T11:48:21;54906.38;;;-143.77;62.76
13836;BME280;6988;52.614;13.500;2023-01-28T11:53:50;54943.31;;;-143.77;63.38
13836;BME280;6988;52.614;13.500;2023-01-28T11:58:55;54939.22;;;-143.77;63.40
13836;BME280;6988;52.614;13.500;2023-01-28T12:04:21;54945.38;;;-143.77;64.86
13836;BME280;6988;52.614;13.500;2023-01-28T12:09:24;54949.47;;;-143.77;64.37
13836;BME280;6988;52.614;13.500;2023-01-28T12:14:31;54947.41;;;-143.77;64.05
13836;BME280;6988;52.614;13.500;2023-01-28T12:19:46;54945.38;;;-143.77;65.03
13836;BME280;6988;52.614;13.500;2023-01-28T12:25:00;54935.09;;;-143.77;64.85
13836;BME280;6988;52.614;13.500;2023-01-28T12:30:11;54918.69;;;-143.77;65.29
13836;BME280;6988;52.614;13.500;2023-01-28T12:35:29;54951.53;;;-143.77;66.07
13836;BME280;6988;52.614;13.500;2023-01-28T12:40:46;54914.59;;;-143.77;65.97
13836;BME280;6988;52.614;13.500;2023-01-28T12:45:43;54939.22;;;-143.77;65.88
13836;BME280;6988;52.614;13.500;2023-01-28T12:50:45;54920.75;;;-143.77;66.51
13836;BME280;6988;52.614;13.500;2023-01-28T12:55:43;54947.41;;;-143.77;65.81
13836;BME280;6988;52.614;13.500;2023-01-28T13:00:41;54935.09;;;-143.77;66.29
13836;BME280;6988;52.614;13.500;2023-01-28T13:05:40;54963.84;;;-143.77;65.96
13836;BME280;6988;52.614;13.500;2023-01-28T13:10:40;54945.38;;;-143.77;65.44
13836;BME280;6988;52.614;13.500;2023-01-28T13:15:35;54922.78;;;-143.77;66.11
13836;BME280;6988;52.614;13.500;2023-01-28T13:20:45;54957.69;;;-143.77;65.76
13836;BME280;6988;52.614;13.500;2023-01-28T13:25:47;54926.91;;;-143.77;66.57
13836;BME280;6988;52.614;13.500;2023-01-28T13:30:47;54933.06;;;-143.77;67.24
13836;BME280;6988;52.614;13.500;2023-01-28T13:35:41;54922.78;;;-143.77;66.91
13836;BME280;6988;52.614;13.500;2023-01-28T13:40:33;54896.13;;;-143.77;64.80
13836;BME280;6988;52.614;13.500;2023-01-28T13:45:27;54935.09;;;-143.77;64.91
13836;BME280;6988;52.614;13.500;2023-01-28T13:50:22;54924.84;;;-143.77;64.73
13836;BME280;6988;52.614;13.500;2023-01-28T13:55:19;54908.44;;;-143.77;62.67
13836;BME280;6988;52.614;13.500;2023-01-28T14:00:22;54939.22;;;-143.77;61.28
13836;BME280;6988;52.614;13.500;2023-01-28T14:11:11;54912.53;;;-143.77;60.85
13836;BME280;6988;52.614;13.500;2023-01-28T14:16:29;54972.03;;;-143.77;59.73
13836;BME280;6988;52.614;13.500;2023-01-28T14:21:27;54914.59;;;-143.77;59.38
13836;BME280;6988;52.614;13.500;2023-01-28T14:26:43;54943.31;;;-143.77;60.46
13836;BME280;6988;52.614;13.500;2023-01-28T14:31:39;54900.22;;;-143.77;61.88
13836;BME280;6988;52.614;13.500;2023-01-28T14:36:35;54928.94;;;-143.77;63.18
13836;BME280;6988;52.614;13.500;2023-01-28T14:41:29;54967.94;;;-143.77;61.31
13836;BME280;6988;52.614;13.500;2023-01-28T14:46:37;54943.31;;;-143.77;61.42
13836;BME280;6988;52.614;13.500;2023-01-28T14:51:51;54935.09;;;-143.77;62.13
13836;BME280;6988;52.614;13.500;2023-01-28T14:57:05;54928.94;;;-143.77;62.58
13836;BME280;6988;52.614;13.500;2023-01-28T15:02:17;54947.41;;;-143.77;62.55
13836;BME280;6988;52.614;13.500;2023-01-28T15:07:17;54912.53;;;-143.77;61.58
13836;BME280;6988;52.614;13.500;2023-01-28T15:12:13;54951.53;;;-143.77;62.40
13836;BME280;6988;52.614;13.500;2023-01-28T15:17:05;54961.78;;;-143.77;62.35
13836;BME280;6988;52.614;13.500;2023-01-28T15:22:06;54922.78;;;-143.77;62.51
13836;BME280;6988;52.614;13.500;2023-01-28T15:26:58;54931.00;;;-143.77;63.02
13836;BME280;6988;52.614;13.500;2023-01-28T15:31:51;54918.69;;;-143.77;63.62
13836;BME280;6988;52.614;13.500;2023-01-28T15:36:44;54976.16;;;-143.77;62.91
13836;BME280;6988;52.614;13.500;2023-01-28T15:41:44;54965.88;;;-143.77;61.56
13836;BME280;6988;52.614;13.500;2023-01-28T15:46:39;54959.72;;;-143.77;62.36
13836;BME280;6988;52.614;13.500;2023-01-28T15:51:32;54951.53;;;-143.77;62.42
13836;BME280;6988;52.614;13.500;2023-01-28T15:56:27;54965.88;;;-143.77;63.70
13836;BME280;6988;52.614;13.500;2023-01-28T16:01:20;54992.56;;;-143.77;63.81
13836;BME280;6988;52.614;13.500;2023-01-28T16:06:16;54984.34;;;-143.77;64.55
13836;BME280;6988;52.614;13.500;2023-01-28T16:11:12;54935.09;;;-143.77;64.65
13836;BME280;6988;52.614;13.500;2023-01-28T16:16:05;54986.41;;;-143.77;65.07
13836;BME280;6988;52.614;13.500;2023-01-28T16:20:58;54939.22;;;-143.77;64.16
13836;BME280;6988;52.614;13.500;2023-01-28T16:25:58;54992.56;;;-143.77;62.64
13836;BME280;6988;52.614;13.500;2023-01-28T16:30:51;54947.41;;;-143.77;63.20
13836;BME280;6988;52.614;13.500;2023-01-28T16:35:43;54939.22;;;-143.77;63.40
13836;BME280;6988;52.614;13.500;2023-01-28T16:40:37;54953.56;;;-143.77;62.91
13836;BME280;6988;52.614;13.500;2023-01-28T16:45:29;54955.63;;;-143.77;64.28
13836;BME280;6988;52.614;13.500;2023-01-28T16:50:22;54957.69;;;-143.77;65.40
13836;BME280;6988;52.614;13.500;2023-01-28T16:55:17;54967.94;;;-143.77;65.76
13836;BME280;6988;52.614;13.500;2023-01-28T17:00:16;54976.16;;;-143.77;66.48
13836;BME280;6988;52.614;13.500;2023-01-28T17:05:09;54945.38;;;-143.77;66.12
13836;BME280;6988;52.614;13.500;2023-01-28T17:10:04;54988.47;;;-143.77;66.11
13836;BME280;6988;52.614;13.500;2023-01-28T17:14:56;54963.84;;;-143.77;66.29
13836;BME280;6988;52.614;13.500;2023-01-28T17:19:48;54967.94;;;-143.77;66.07
13836;BME280;6988;52.614;13.500;2023-01-28T17:24:40;54972.03;;;-143.77;66.79
13836;BME280;6988;52.614;13.500;2023-01-28T17:29:33;54986.41;;;-143.77;66.21
13836;BME280;6988;52.614;13.500;2023-01-28T17:34:25;54984.34;;;-143.77;66.56
13836;BME280;6988;52.614;13.500;2023-01-28T17:39:16;54951.53;;;-143.77;66.45
13836;BME280;6988;52.614;13.500;2023-01-28T17:44:10;54967.94;;;-143.77;66.65
13836;BME280;6988;52.614;13.500;2023-01-28T17:49:05;54984.34;;;-143.77;66.70
13836;BME280;6988;52.614;13.500;2023-01-28T17:53:57;54992.56;;;-143.77;66.02
13836;BME280;6988;52.614;13.500;2023-01-28T17:58:50;54965.88;;;-143.77;65.67
13836;BME280;6988;52.614;13.500;2023-01-28T18:03:42;54963.84;;;-143.77;65.88
13836;BME280;6988;52.614;13.500;2023-01-28T18:08:35;54967.94;;;-143.77;66.46
13836;BME280;6988;52.614;13.500;2023-01-28T18:13:26;54953.56;;;-143.77;66.76
13836;BME280;6988;52.614;13.500;2023-01-28T18:18:18;55011.03;;;-143.77;65.82
13836;BME280;6988;52.614;13.500;2023-01-28T18:23:10;55017.19;;;-143.77;66.12
13836;BME280;6988;52.614;13.500;2023-01-28T18:28:04;55000.78;;;-143.77;66.53
13836;BME280;6988;52.614;13.500;2023-01-28T18:32:57;55047.97;;;-143.77;66.88
13836;BME280;6988;52.614;13.500;2023-01-28T18:37:49;55033.59;;;-143.77;66.96
13836;BME280;6988;52.614;13.500;2023-01-28T18:42:41;55017.19;;;-143.77;67.03
13836;BME280;6988;52.614;13.500;2023-01-28T18:47:34;55011.03;;;-143.77;66.85
13836;BME280;6988;52.614;13.500;2023-01-28T18:52:26;55027.44;;;-143.77;67.58
13836;BME280;6988;52.614;13.500;2023-01-28T18:57:18;55033.59;;;-143.77;67.90
13836;BME280;6988;52.614;13.500;2023-01-28T19:02:12;55043.88;;;-143.77;67.87
13836;BME280;6988;52.614;13.500;2023-01-28T19:07:06;55000.78;;;-143.77;67.31
13836;BME280;6988;52.614;13.500;2023-01-28T19:11:59;54996.66;;;-143.77;67.61
13836;BME280;6988;52.614;13.500;2023-01-28T19:16:51;55008.97;;;-143.77;67.85
13836;BME280;6988;52.614;13.500;2023-01-28T19:21:43;55021.28;;;-143.77;67.69
13836;BME280;6988;52.614;13.500;2023-01-28T19:26:36;55019.25;;;-143.77;67.58
13836;BME280;6988;52.614;13.500;2023-01-28T19:31:28;55021.28;;;-143.77;67.81
13836;BME280;6988;52.614;13.500;2023-01-28T19:36:21;54996.66;;;-143.77;67.52
13836;BME280;6988;52.614;13.500;2023-01-28T19:41:12;54990.50;;;-143.77;68.07
13836;BME280;6988;52.614;13.500;2023-01-28T19:46:08;54955.63;;;-143.77;67.60
13836;BME280;6988;52.614;13.500;2023-01-28T19:51:07;54984.34;;;-143.77;68.09
13836;BME280;6988;52.614;13.500;2023-01-28T19:56:00;55008.97;;;-143.77;67.78
13836;BME280;6988;52.614;13.500;2023-01-28T20:00:53;54994.63;;;-143.77;68.29
13836;BME280;6988;52.614;13.500;2023-01-28T20:05:46;54996.66;;;-143.77;68.28
13836;BME280;6988;52.614;13.500;2023-01-28T20:10:38;54988.47;;;-143.77;68.58
13836;BME280;6988;52.614;13.500;2023-01-28T20:15:30;55050.03;;;-143.77;68.58
13836;BME280;6988;52.614;13.500;2023-01-28T20:20:22;55000.78;;;-143.77;68.32
13836;BME280;6988;52.614;13.500;2023-01-28T20:25:15;55006.94;;;-143.77;68.17
13836;BME280;6988;52.614;13.500;2023-01-28T20:30:09;55015.13;;;-143.77;68.26
13836;BME280;6988;52.614;13.500;2023-01-28T20:35:01;55004.88;;;-143.77;68.63
13836;BME280;6988;52.614;13.500;2023-01-28T20:39:52;55000.78;;;-143.77;68.71
13836;BME280;6988;52.614;13.500;2023-01-28T20:44:45;55021.28;;;-143.77;68.53
13836;BME280;6988;52.614;13.500;2023-01-28T20:49:37;54988.47;;;-143.77;68.90
13836;BME280;6988;52.614;13.500;2023-01-28T20:54:29;55033.59;;;-143.77;68.64
13836;BME280;6988;52.614;13.500;2023-01-28T20:59:21;55002.81;;;-143.77;68.99
13836;BME280;6988;52.614;13.500;2023-01-28T21:04:14;55027.44;;;-143.77;69.09
13836;BME280;6988;52.614;13.500;2023-01-28T21:09:07;55037.72;;;-143.77;69.03
13836;BME280;6988;52.614;13.500;2023-01-28T21:13:59;55019.25;;;-143.77;69.58
13836;BME280;6988;52.614;13.500;2023-01-28T21:18:51;55013.09;;;-143.77;69.58
13836;BME280;6988;52.614;13.500;2023-01-28T21:23:45;55027.44;;;-143.77;69.58
13836;BME280;6988;52.614;13.500;2023-01-28T21:28:37;55000.78;;;-143.77;70.39
13836;BME280;6988;52.614;13.500;2023-01-28T21:33:28;55035.66;;;-143.77;70.51
13836;BME280;6988;52.614;13.500;2023-01-28T21:38:20;55043.88;;;-143.77;70.67
13836;BME280;6988;52.614;13.500;2023-01-28T21:43:13;55037.72;;;-143.77;70.68
13836;BME280;6988;52.614;13.500;2023-01-28T21:48:05;55021.28;;;-143.77;70.56
13836;BME280;6988;52.614;13.500;2023-01-28T21:52:57;55037.72;;;-143.77;71.02
13836;BME280;6988;52.614;13.500;2023-01-28T21:57:49;55045.91;;;-143.77;70.76
13836;BME280;6988;52.614;13.500;2023-01-28T22:03:02;55045.91;;;-143.77;71.33
13836;BME280;6988;52.614;13.500;2023-01-28T22:07:54;55017.19;;;-143.77;71.67
13836;BME280;6988;52.614;13.500;2023-01-28T22:12:46;55045.91;;;-143.77;71.46
13836;BME280;6988;52.614;13.500;2023-01-28T22:17:37;55021.28;;;-143.77;71.71
13836;BME280;6988;52.614;13.500;2023-01-28T22:22:30;55037.72;;;-143.77;71.87
13836;BME280;6988;52.614;13.500;2023-01-28T22:27:22;55027.44;;;-143.77;71.24
13836;BME280;6988;52.614;13.500;2023-01-28T22:32:14;55004.88;;;-143.77;71.40
13836;BME280;6988;52.614;13.500;2023-01-28T22:37:05;55027.44;;;-143.77;71.62
13836;BME280;6988;52.614;13.500;2023-01-28T22:41:58;55054.13;;;-143.77;71.21
13836;BME280;6988;52.614;13.500;2023-01-28T23:04:58;55004.88;;;-143.77;72.68
13836;BME280;6988;52.614;13.500;2023-01-28T23:09:50;55027.44;;;-143.77;72.80
13836;BME280;6988;52.614;13.500;2023-01-28T23:14:41;55043.88;;;-143.77;72.39
13836;BME280;6988;52.614;13.500;2023-01-28T23:19:57;55017.19;;;-143.77;72.50
13836;BME280;6988;52.614;13.500;2023-01-28T23:25:07;55011.03;;;-143.77;71.84
13836;BME280;6988;52.614;13.500;2023-01-28T23:29:59;55035.66;;;-143.77;71.75
13836;BME280;6988;52.614;13.500;2023-01-28T23:34:51;55019.25;;;-143.77;71.69
13836;BME280;6988;52.614;13.500;2023-01-28T23:39:44;55027.44;;;-143.77;72.02
13836;BME280;6988;52.614;13.500;2023-01-28T23:44:36;55068.50;;;-143.77;71.62
13836;BME280;6988;52.614;13.500;2023-01-28T23:49:27;55043.88;;;-143.77;71.84
13836;BME280;6988;52.614;13.500;2023-01-28T23:54:19;55023.34;;;-143.77;71.78
13836;BME280;6988;52.614;13.500;2023-01-28T23:59:12;55029.50;;;-143.77;72.18
